KGSP

Greenville Spartanburg International Airport

Greer, South Carolina, USA
METAR KGSP 150253Z 00000KT 10SM BKN070 24/20 A3006 RMK AO2 SLP166 T02440200 53015
Observed Flight Rules
Aug-15 @ 02:53 UTC (42 minutes ago) Visual Flight Rules
Visibility Clouds
10 miles
  • Broken at 7,000' AGL
Temperatures Readings
Current 24°C / 75°F
Dewpoint 20°C / 68°F
Humidity 78%
Altimeter 30.06" Hg
Pressure 1016.6 hPa
Elevation 287
METAR KGSP 150253Z 00000KT 10SM BKN070 24/20 A3006 RMK AO2 SLP166 T02440200 53015
Observed Flight Rules
Aug-15 @ 02:53 UTC
(42 minutes ago)
VFR
Clouds
  • Broken at 7,000' AGL
Temperature Dewpoint
24°C / 75°F 20°C / 68°F
Humidity Altimeter Pressure
78% 30.06" Hg 1016.6 hPa